createdAt,value
2023-05-22T00:01:21.305Z,38.47
2023-05-22T00:03:50.870Z,38.67
2023-05-22T00:06:19.104Z,37.58
2023-05-22T00:08:47.192Z,38.70
2023-05-22T00:11:15.409Z,38.17
2023-05-22T00:13:43.456Z,38.78
2023-05-22T00:16:11.641Z,38.38
2023-05-22T00:18:42.918Z,40.13
2023-05-22T00:21:13.640Z,38.20
2023-05-22T00:23:42.943Z,39.13
2023-05-22T00:26:11.156Z,40.15
2023-05-22T00:28:39.229Z,40.30
2023-05-22T00:31:07.406Z,39.63
2023-05-22T00:33:35.602Z,38.88
2023-05-22T00:36:06.452Z,38.97
2023-05-22T00:38:37.803Z,39.72
2023-05-22T00:41:07.208Z,39.45
2023-05-22T00:43:36.152Z,41.65
2023-05-22T00:46:04.426Z,40.50
2023-05-22T00:48:32.588Z,41.25
2023-05-22T00:51:01.786Z,40.47
2023-05-22T00:53:32.523Z,42.05
2023-05-22T00:56:01.499Z,41.90
2023-05-22T00:58:29.621Z,40.55
2023-05-22T01:00:57.896Z,41.30
2023-05-22T01:03:28.412Z,39.65
2023-05-22T01:05:56.911Z,41.13
2023-05-22T01:08:25.138Z,40.53
2023-05-22T01:11:02.961Z,39.75
2023-05-22T01:13:35.754Z,41.47
2023-05-22T01:16:12.058Z,41.40
2023-05-22T01:18:46.463Z,41.17
2023-05-22T01:21:23.164Z,41.63
2023-05-22T01:24:25.690Z,42.38
2023-05-22T01:27:17.699Z,41.33
2023-05-22T01:29:52.881Z,41.50
2023-05-22T01:32:24.335Z,41.67
2023-05-22T01:34:55.359Z,41.22
2023-05-22T01:37:24.361Z,43.17
2023-05-22T01:39:53.310Z,42.28
2023-05-22T01:42:22.016Z,41.95
2023-05-22T01:44:50.288Z,41.25
2023-05-22T01:47:18.338Z,40.70
2023-05-22T01:49:48.364Z,40.67
2023-05-22T01:52:26.729Z,40.67
2023-05-22T01:55:03.713Z,41.15
2023-05-22T01:57:36.828Z,41.13
2023-05-22T02:00:10.996Z,42.60
2023-05-22T02:02:41.199Z,42.20
2023-05-22T02:05:13.733Z,42.10
2023-05-22T02:07:43.743Z,41.92
2023-05-22T02:10:13.179Z,42.75
2023-05-22T02:12:42.202Z,41.40
2023-05-22T02:15:10.873Z,43.80
2023-05-22T02:17:41.419Z,41.22
2023-05-22T02:20:15.470Z,42.13
2023-05-22T02:22:44.790Z,41.63
2023-05-22T02:25:14.578Z,43.13
2023-05-22T02:27:43.818Z,41.30
2023-05-22T02:30:13.005Z,42.75
2023-05-22T02:32:42.089Z,40.67
2023-05-22T02:35:12.115Z,40.72
2023-05-22T02:37:40.400Z,42.17
2023-05-22T02:40:09.989Z,40.65
2023-05-22T02:42:38.176Z,40.30
2023-05-22T02:45:08.427Z,40.00
2023-05-22T02:47:36.697Z,40.38
2023-05-22T02:50:05.064Z,42.13
2023-05-22T02:52:35.232Z,41.53
2023-05-22T02:55:04.346Z,40.50
2023-05-22T02:57:32.560Z,39.85
2023-05-22T03:00:01.589Z,41.55
2023-05-22T03:02:30.216Z,41.30
2023-05-22T03:04:59.652Z,40.55
2023-05-22T03:07:29.675Z,41.85
2023-05-22T03:09:59.279Z,40.38
2023-05-22T03:12:27.265Z,41.20
2023-05-22T03:14:55.423Z,42.00
2023-05-22T03:17:23.448Z,43.17
2023-05-22T03:19:51.570Z,42.47
2023-05-22T03:22:19.780Z,42.42
2023-05-22T03:24:47.905Z,44.40
2023-05-22T03:27:18.086Z,42.10
2023-05-22T03:29:46.297Z,42.05
2023-05-22T03:32:14.560Z,43.17
2023-05-22T03:34:43.549Z,43.67
2023-05-22T03:37:11.758Z,43.08
2023-05-22T03:39:40.547Z,41.00
2023-05-22T03:42:08.716Z,42.75
2023-05-22T03:44:38.108Z,43.15
2023-05-22T03:47:06.691Z,43.45
2023-05-22T03:49:34.857Z,43.17
2023-05-22T03:52:03.544Z,41.83
2023-05-22T03:54:31.583Z,42.28
2023-05-22T03:56:59.826Z,43.50
2023-05-22T03:59:27.847Z,41.53
2023-05-22T04:02:01.277Z,41.75
2023-05-22T04:04:29.649Z,42.53
2023-05-22T04:06:58.087Z,41.38
2023-05-22T04:09:28.517Z,41.35
2023-05-22T04:11:56.818Z,41.90
2023-05-22T04:14:24.904Z,41.33
2023-05-22T04:16:53.081Z,41.83
2023-05-22T04:19:22.651Z,42.50
2023-05-22T04:21:51.289Z,43.13
2023-05-22T04:24:19.815Z,43.13
2023-05-22T04:26:47.904Z,43.05
2023-05-22T04:29:16.558Z,42.33
2023-05-22T04:31:44.708Z,43.53
2023-05-22T04:34:13.727Z,42.33
2023-05-22T04:36:45.471Z,42.60
2023-05-22T04:39:14.364Z,42.00
2023-05-22T04:41:42.887Z,42.42
2023-05-22T04:44:10.870Z,41.50
2023-05-22T04:46:39.681Z,41.28
2023-05-22T04:49:08.568Z,42.40
2023-05-22T04:51:36.919Z,41.33
2023-05-22T04:54:06.656Z,40.40
2023-05-22T04:56:37.216Z,41.97
2023-05-22T04:59:09.142Z,41.97
2023-05-22T05:01:38.245Z,41.28
2023-05-22T05:04:06.795Z,40.30
2023-05-22T05:06:36.069Z,42.67
2023-05-22T05:09:04.367Z,40.60
2023-05-22T05:11:36.888Z,41.40
2023-05-22T05:14:05.217Z,41.00
2023-05-22T05:16:33.798Z,42.17
2023-05-22T05:19:02.410Z,42.92
2023-05-22T05:21:31.574Z,40.85
2023-05-22T05:23:59.857Z,40.08
2023-05-22T05:26:28.301Z,41.38
2023-05-22T05:28:58.137Z,40.85
2023-05-22T05:31:26.316Z,41.05
2023-05-22T05:33:56.743Z,45.97
2023-05-22T05:36:25.386Z,44.42
2023-05-22T05:38:54.276Z,44.03
2023-05-22T05:41:23.042Z,45.42
2023-05-22T05:43:52.245Z,45.58
2023-05-22T05:46:22.766Z,44.58
2023-05-22T05:48:50.942Z,46.03
2023-05-22T05:51:19.157Z,45.28
2023-05-22T05:53:47.103Z,45.45
2023-05-22T05:56:15.582Z,45.45
2023-05-22T05:58:43.581Z,45.20
2023-05-22T06:01:11.871Z,44.58
2023-05-22T06:03:41.537Z,44.75
2023-05-22T06:06:09.729Z,46.33
2023-05-22T06:08:38.370Z,44.80
2023-05-22T06:11:06.544Z,45.58
2023-05-22T06:13:37.148Z,45.33
2023-05-22T06:16:06.735Z,45.67
2023-05-22T06:18:35.166Z,45.42
2023-05-22T06:21:04.982Z,47.50
2023-05-22T06:23:33.169Z,45.00
2023-05-22T06:26:01.645Z,44.17
2023-05-22T06:28:29.851Z,45.33
2023-05-22T06:30:58.201Z,46.13
2023-05-22T06:33:26.341Z,45.20
2023-05-22T06:35:55.499Z,46.10
2023-05-22T06:38:25.022Z,47.42
2023-05-22T06:40:54.166Z,47.92
2023-05-22T06:43:25.014Z,47.42
2023-05-22T06:45:53.220Z,47.47
2023-05-22T06:48:21.374Z,47.25
2023-05-22T06:50:49.568Z,47.90
2023-05-22T06:53:17.790Z,48.33
2023-05-22T06:55:47.542Z,46.80
2023-05-22T06:58:15.908Z,48.63
2023-05-22T07:00:44.027Z,50.05
2023-05-22T07:03:12.202Z,49.15
2023-05-22T07:05:40.607Z,48.22
2023-05-22T07:08:09.669Z,48.50
2023-05-22T07:10:37.998Z,48.22
2023-05-22T07:13:07.809Z,48.40
2023-05-22T07:15:36.185Z,48.30
2023-05-22T07:18:04.855Z,46.70
2023-05-22T07:20:33.186Z,47.17
2023-05-22T07:23:01.400Z,48.28
2023-05-22T07:25:29.424Z,48.50
2023-05-22T07:27:58.378Z,47.60
2023-05-22T07:30:27.951Z,50.53
2023-05-22T07:32:56.412Z,50.83
2023-05-22T07:35:24.608Z,50.88
2023-05-22T07:37:52.693Z,49.88
2023-05-22T07:40:21.278Z,49.78
2023-05-22T07:42:49.241Z,51.15
2023-05-22T07:45:17.537Z,49.85
2023-05-22T07:47:47.262Z,51.38
2023-05-22T07:50:15.805Z,52.58
2023-05-22T07:52:43.889Z,52.40
2023-05-22T07:55:12.039Z,50.35
2023-05-22T07:57:40.784Z,51.10
2023-05-22T08:00:13.737Z,51.83
2023-05-22T08:02:42.428Z,53.80
2023-05-22T08:05:12.721Z,53.72
2023-05-22T08:07:40.920Z,53.95
2023-05-22T08:10:16.102Z,54.47
2023-05-22T08:12:44.339Z,56.00
2023-05-22T08:15:13.307Z,54.08
2023-05-22T08:17:41.539Z,55.92
2023-05-22T08:20:13.240Z,57.13
2023-05-22T08:22:41.927Z,56.17
2023-05-22T08:25:10.994Z,56.13
2023-05-22T08:27:39.640Z,55.10
2023-05-22T08:30:09.085Z,55.10
2023-05-22T08:32:37.109Z,55.65
2023-05-22T08:35:05.487Z,57.95
2023-05-22T08:37:35.206Z,55.40
2023-05-22T08:40:04.333Z,56.33
2023-05-22T08:42:32.532Z,58.50
2023-05-22T08:45:01.149Z,56.67
2023-05-22T08:47:29.561Z,56.60
2023-05-22T08:49:59.544Z,55.78
2023-05-22T08:52:34.219Z,57.97
2023-05-22T08:55:06.264Z,57.58
2023-05-22T08:57:37.508Z,58.28
2023-05-22T09:00:07.930Z,55.67
2023-05-22T09:02:36.403Z,56.88
2023-05-22T09:05:05.723Z,55.05
2023-05-22T09:07:33.978Z,57.50
2023-05-22T09:10:05.430Z,59.67
2023-05-22T09:12:33.960Z,58.20
2023-05-22T09:15:10.184Z,59.58
2023-05-22T09:17:41.001Z,58.55
2023-05-22T09:20:13.364Z,62.22
2023-05-22T09:22:41.649Z,63.50
2023-05-22T09:25:22.178Z,66.95
2023-05-22T09:27:54.565Z,65.82
2023-05-22T09:30:22.775Z,65.20
2023-05-22T09:32:51.133Z,65.50
2023-05-22T09:35:20.729Z,65.97
2023-05-22T09:37:52.058Z,68.18
2023-05-22T09:40:22.991Z,69.25
2023-05-22T09:42:51.208Z,68.82
2023-05-22T09:45:22.835Z,70.32
2023-05-22T09:47:53.903Z,72.00
2023-05-22T09:50:22.094Z,69.28
2023-05-22T09:52:52.154Z,68.45
2023-05-22T09:55:24.024Z,67.18
2023-05-22T09:57:53.941Z,66.00
2023-05-22T10:00:24.203Z,68.32
2023-05-22T10:02:58.805Z,66.28
2023-05-22T10:05:32.706Z,63.38
2023-05-22T10:08:08.891Z,62.95
2023-05-22T10:10:40.263Z,61.10
2023-05-22T10:13:09.279Z,59.95
2023-05-22T10:15:37.913Z,54.60
2023-05-22T10:18:07.713Z,58.63
2023-05-22T10:20:36.338Z,58.53
2023-05-22T10:23:04.740Z,59.35
2023-05-22T10:25:33.802Z,62.28
2023-05-22T10:28:03.990Z,64.43
2023-05-22T10:30:37.772Z,61.45
2023-05-22T10:33:12.954Z,60.30
2023-05-22T10:35:47.120Z,61.03
2023-05-22T10:38:40.894Z,61.20
2023-05-22T10:41:09.380Z,60.58
2023-05-22T10:43:42.934Z,63.35
2023-05-22T10:46:13.978Z,62.28
2023-05-22T10:48:45.534Z,63.15
2023-05-22T10:51:15.136Z,62.45
2023-05-22T10:53:45.234Z,59.70
2023-05-22T10:56:14.575Z,62.38
2023-05-22T10:58:56.464Z,62.30
2023-05-22T11:01:27.573Z,62.80
2023-05-22T11:03:57.600Z,59.95
2023-05-22T11:06:32.336Z,61.55
2023-05-22T11:09:00.817Z,60.05
2023-05-22T11:11:29.356Z,58.85
2023-05-22T11:14:04.617Z,60.10
2023-05-22T11:16:34.955Z,52.35
2023-05-22T11:19:21.978Z,50.85
2023-05-22T11:21:51.835Z,55.08
2023-05-22T11:24:20.184Z,51.30
2023-05-22T11:27:02.964Z,46.40
2023-05-22T11:29:33.295Z,50.20
2023-05-22T11:32:02.992Z,44.53
2023-05-22T11:34:31.100Z,43.20
2023-05-22T11:37:02.020Z,47.28
2023-05-22T11:41:08.000Z,43.38
2023-05-22T11:51:23.757Z,39.03
2023-05-22T11:54:06.623Z,42.47
2023-05-22T11:57:01.251Z,37.45
2023-05-22T11:59:36.353Z,44.17
2023-05-22T12:02:04.701Z,40.30
2023-05-22T12:04:34.871Z,42.97
2023-05-22T12:07:04.948Z,45.10
2023-05-22T12:09:34.207Z,40.72
2023-05-22T12:12:02.606Z,43.15
2023-05-22T12:14:32.153Z,43.08
2023-05-22T12:17:01.266Z,38.75
2023-05-22T12:19:29.865Z,42.22
2023-05-22T12:21:58.493Z,46.35
2023-05-22T12:24:28.572Z,44.40
2023-05-22T12:26:57.522Z,40.33
2023-05-22T12:29:25.940Z,46.40
2023-05-22T12:31:54.176Z,45.65
2023-05-22T12:34:23.940Z,44.58
2023-05-22T12:36:52.562Z,47.88
2023-05-22T12:39:21.403Z,42.92
2023-05-22T12:41:51.170Z,47.58
2023-05-22T12:44:19.331Z,43.45
2023-05-22T12:46:48.000Z,46.22
2023-05-22T12:49:16.453Z,42.47
2023-05-22T12:51:45.124Z,44.67
2023-05-22T12:54:14.861Z,47.53
2023-05-22T12:56:43.194Z,47.45
2023-05-22T12:59:12.661Z,43.50
2023-05-22T13:01:41.041Z,41.40
2023-05-22T13:04:09.467Z,41.45
2023-05-22T13:06:37.720Z,48.47
2023-05-22T13:09:06.298Z,41.40
2023-05-22T13:11:34.971Z,41.75
2023-05-22T13:14:03.367Z,45.92
2023-05-22T13:16:33.278Z,38.13
2023-05-22T13:19:03.575Z,38.80
2023-05-22T13:21:33.084Z,41.60
2023-05-22T13:24:01.404Z,39.00
2023-05-22T13:26:29.581Z,35.67
2023-05-22T13:28:58.004Z,37.20
2023-05-22T13:31:26.451Z,39.83
2023-05-22T13:33:56.411Z,37.67
2023-05-22T13:36:24.720Z,36.60
2023-05-22T13:38:53.251Z,33.75
2023-05-22T13:41:21.401Z,28.70
2023-05-22T13:43:49.634Z,31.52
2023-05-22T13:46:18.396Z,32.22
2023-05-22T13:48:47.042Z,28.00
2023-05-22T13:51:16.869Z,33.13
2023-05-22T13:53:45.305Z,32.45
2023-05-22T13:56:13.596Z,31.75
2023-05-22T13:58:42.096Z,34.70
2023-05-22T14:01:10.913Z,35.35
2023-05-22T14:03:39.438Z,36.97
2023-05-22T14:06:08.047Z,36.65
2023-05-22T14:08:38.776Z,37.53
2023-05-22T14:11:08.800Z,36.28
2023-05-22T14:13:38.358Z,37.50
2023-05-22T14:16:06.824Z,36.05
2023-05-22T14:18:36.642Z,34.40
2023-05-22T14:21:05.344Z,41.53
2023-05-22T14:23:34.297Z,42.15
2023-05-22T14:26:04.132Z,44.72
2023-05-22T14:28:32.809Z,40.17
2023-05-22T14:31:01.335Z,39.03
2023-05-22T14:33:31.460Z,37.83
2023-05-22T14:35:59.643Z,39.65
2023-05-22T14:38:33.503Z,34.90
2023-05-22T14:41:03.508Z,33.38
2023-05-22T14:43:31.754Z,35.53
2023-05-22T14:46:00.141Z,36.95
2023-05-22T14:48:29.511Z,36.65
2023-05-22T14:50:57.890Z,38.53
2023-05-22T14:53:26.183Z,36.72
2023-05-22T14:55:54.301Z,32.80
2023-05-22T14:58:24.012Z,30.77
2023-05-22T15:00:52.777Z,37.58
2023-05-22T15:03:26.544Z,33.78
2023-05-22T15:06:08.662Z,35.55
2023-05-22T15:08:37.762Z,26.08
2023-05-22T15:11:08.523Z,24.33
2023-05-22T15:13:39.251Z,22.27
2023-05-22T15:16:08.203Z,27.75
2023-05-22T15:18:44.486Z,29.35
2023-05-22T15:21:13.051Z,32.25
2023-05-22T15:23:41.196Z,30.63
2023-05-22T15:26:12.444Z,37.83
2023-05-22T15:29:01.283Z,33.53
2023-05-22T15:31:30.208Z,28.80
2023-05-22T15:34:01.279Z,31.88
2023-05-22T15:36:30.583Z,36.15
2023-05-22T15:38:59.049Z,43.20
2023-05-22T15:41:27.396Z,38.17
2023-05-22T15:43:57.219Z,32.83
2023-05-22T15:46:25.454Z,31.10
2023-05-22T15:48:53.627Z,27.27
2023-05-22T15:51:22.290Z,22.85
2023-05-22T15:53:50.965Z,19.00
2023-05-22T15:56:19.240Z,16.77
2023-05-22T15:58:47.545Z,20.67
2023-05-22T16:01:18.315Z,18.75
2023-05-22T16:03:46.823Z,24.45
2023-05-22T16:06:15.025Z,21.63
2023-05-22T16:08:43.148Z,15.93
2023-05-22T16:11:11.264Z,9.18
2023-05-22T16:13:42.712Z,8.70
2023-05-22T16:16:13.888Z,8.80
2023-05-22T16:18:43.620Z,8.05
2023-05-22T16:21:11.681Z,9.23
2023-05-22T16:23:42.822Z,7.70
2023-05-22T16:26:11.217Z,7.85
2023-05-22T16:28:47.499Z,10.13
2023-05-22T16:32:35.459Z,11.30
2023-05-22T16:35:05.687Z,10.25
2023-05-22T16:37:34.812Z,10.57
2023-05-22T16:40:03.049Z,12.73
2023-05-22T16:42:31.299Z,10.40
2023-05-22T16:45:01.843Z,9.75
2023-05-22T16:47:30.365Z,11.82
2023-05-22T16:49:58.425Z,12.98
2023-05-22T16:52:28.110Z,12.52
2023-05-22T16:54:56.429Z,11.85
2023-05-22T16:57:27.046Z,15.50
2023-05-22T16:59:57.730Z,19.02
2023-05-22T17:02:26.327Z,20.83
2023-05-22T17:04:54.779Z,27.60
2023-05-22T17:07:23.546Z,28.27
2023-05-22T17:09:53.337Z,18.02
2023-05-22T17:12:23.283Z,20.73
2023-05-22T17:14:51.955Z,18.98
2023-05-22T17:17:20.447Z,18.73
2023-05-22T17:19:49.288Z,24.67
2023-05-22T17:22:20.270Z,24.02
2023-05-22T17:24:49.271Z,27.50
2023-05-22T17:27:34.471Z,22.48
2023-05-22T17:30:11.311Z,24.95
2023-05-22T17:32:40.023Z,25.23
2023-05-22T17:35:09.581Z,27.33
2023-05-22T17:37:37.903Z,24.33
2023-05-22T17:40:06.767Z,20.88
2023-05-22T17:42:36.879Z,26.60
2023-05-22T17:45:08.752Z,30.17
2023-05-22T17:47:36.946Z,27.70
2023-05-22T17:50:05.993Z,24.70
2023-05-22T17:52:34.306Z,25.33
2023-05-22T17:55:03.094Z,21.48
2023-05-22T17:57:34.275Z,34.65
2023-05-22T18:00:09.618Z,33.47
2023-05-22T18:02:37.968Z,32.65
2023-05-22T18:05:07.816Z,40.80
2023-05-22T18:07:41.931Z,41.40
2023-05-22T18:10:10.706Z,43.33
2023-05-22T18:12:39.609Z,50.03
2023-05-22T18:15:12.152Z,53.03
2023-05-22T18:17:41.519Z,56.50
2023-05-22T18:20:12.970Z,57.83
2023-05-22T18:22:41.763Z,58.95
2023-05-22T18:25:10.751Z,63.85
2023-05-22T18:27:39.446Z,65.70
2023-05-22T18:30:12.517Z,62.00
2023-05-22T18:32:40.979Z,62.78
2023-05-22T18:35:12.196Z,63.40
2023-05-22T18:37:40.792Z,63.10
2023-05-22T18:40:11.254Z,62.33
2023-05-22T18:42:39.390Z,62.55
2023-05-22T18:45:11.358Z,64.28
2023-05-22T18:47:39.650Z,62.40
2023-05-22T18:50:09.028Z,66.85
2023-05-22T18:52:37.277Z,65.63
2023-05-22T18:55:06.112Z,65.78
2023-05-22T18:57:36.937Z,63.25
2023-05-22T19:00:05.833Z,64.20
2023-05-22T19:02:35.611Z,63.92
2023-05-22T19:05:04.679Z,63.53
2023-05-22T19:07:42.725Z,61.63
2023-05-22T19:10:16.747Z,61.13
2023-05-22T19:13:01.539Z,61.47
2023-05-22T19:15:43.271Z,60.78
2023-05-22T19:18:24.879Z,62.22
2023-05-22T19:21:00.302Z,60.10
2023-05-22T19:23:33.197Z,60.13
2023-05-22T19:26:09.290Z,60.45
2023-05-22T19:28:37.743Z,58.55
2023-05-22T19:34:10.396Z,58.30
2023-05-22T19:45:49.197Z,52.72
2023-05-22T19:48:44.235Z,50.50
2023-05-22T19:51:40.676Z,51.17
2023-05-22T19:58:11.636Z,48.67
2023-05-22T20:03:57.205Z,49.00
2023-05-22T20:07:00.534Z,47.60
2023-05-22T20:09:36.128Z,46.45
2023-05-22T20:12:22.604Z,46.72
2023-05-22T20:15:03.645Z,46.03
2023-05-22T20:18:00.940Z,45.75
2023-05-22T20:20:46.360Z,44.70
2023-05-22T20:23:18.765Z,44.95
2023-05-22T20:25:52.394Z,43.35
2023-05-22T20:28:22.387Z,43.92
2023-05-22T20:31:00.023Z,42.13
2023-05-22T20:33:28.621Z,41.60
2023-05-22T20:35:58.628Z,43.10
2023-05-22T20:38:32.653Z,42.40
2023-05-22T20:41:02.853Z,43.33
2023-05-22T20:43:31.491Z,41.40
2023-05-22T20:46:25.017Z,41.60
2023-05-22T20:48:53.898Z,41.10
2023-05-22T20:51:26.109Z,42.92
2023-05-22T20:53:54.369Z,41.80
2023-05-22T20:56:24.084Z,41.38
2023-05-22T20:58:52.697Z,41.35
2023-05-22T21:01:21.148Z,39.88
2023-05-22T21:03:50.178Z,40.28
2023-05-22T21:06:18.730Z,39.05
2023-05-22T21:08:47.079Z,40.22
2023-05-22T21:11:15.935Z,40.63
2023-05-22T21:13:45.815Z,41.40
2023-05-22T21:16:14.541Z,40.55
2023-05-22T21:18:43.796Z,41.05
2023-05-22T21:21:12.311Z,42.15
2023-05-22T21:23:40.543Z,40.65
2023-05-22T21:26:09.122Z,41.28
2023-05-22T21:28:37.588Z,40.22
2023-05-22T21:31:09.032Z,39.95
2023-05-22T21:33:37.735Z,40.42
2023-05-22T21:36:06.567Z,40.97
2023-05-22T21:38:35.183Z,39.50
2023-05-22T21:41:03.531Z,38.80
2023-05-22T21:43:31.867Z,38.67
2023-05-22T21:46:00.049Z,39.65
2023-05-22T21:48:29.682Z,40.10
2023-05-22T21:50:57.843Z,39.97
2023-05-22T21:53:28.194Z,38.38
2023-05-22T21:55:56.463Z,38.97
2023-05-22T21:58:24.860Z,38.55
2023-05-22T22:00:53.297Z,38.05
2023-05-22T22:03:21.683Z,38.88
2023-05-22T22:05:52.522Z,39.88
2023-05-22T22:08:20.548Z,40.05
2023-05-22T22:10:49.744Z,39.92
2023-05-22T22:13:18.010Z,38.95
2023-05-22T22:15:49.457Z,38.75
2023-05-22T22:18:18.169Z,39.13
2023-05-22T22:20:55.399Z,38.50
2023-05-22T22:23:25.382Z,39.67
2023-05-22T22:25:53.657Z,39.72
2023-05-22T22:28:26.118Z,38.53
2023-05-22T22:30:55.265Z,39.33
2023-05-22T22:33:33.240Z,39.35
2023-05-22T22:36:01.930Z,39.97
2023-05-22T22:38:33.336Z,39.30
2023-05-22T22:41:09.347Z,39.28
2023-05-22T22:43:40.590Z,39.33
2023-05-22T22:46:10.020Z,37.70
2023-05-22T22:48:41.781Z,37.95
2023-05-22T22:51:10.832Z,38.05
2023-05-22T22:53:40.665Z,37.00
2023-05-22T22:56:09.033Z,38.92
2023-05-22T22:58:37.355Z,38.80
2023-05-22T23:01:07.876Z,40.40
2023-05-22T23:03:36.800Z,38.65
2023-05-22T23:06:05.247Z,40.15
2023-05-22T23:08:33.801Z,41.22
2023-05-22T23:11:03.644Z,40.95
2023-05-22T23:13:32.092Z,40.75
2023-05-22T23:16:00.338Z,41.55
2023-05-22T23:18:29.052Z,40.30
2023-05-22T23:20:57.317Z,41.08
2023-05-22T23:23:25.484Z,40.42
2023-05-22T23:25:54.007Z,40.90
2023-05-22T23:28:23.890Z,42.33
2023-05-22T23:30:52.956Z,39.35
2023-05-22T23:33:23.660Z,38.97
2023-05-22T23:35:52.171Z,38.10
2023-05-22T23:38:20.825Z,39.63
2023-05-22T23:40:49.080Z,39.05
2023-05-22T23:43:18.705Z,39.05
2023-05-22T23:45:50.311Z,37.88
2023-05-22T23:48:18.930Z,39.47
2023-05-22T23:50:47.317Z,37.95
2023-05-22T23:53:15.749Z,39.90
2023-05-22T23:55:44.045Z,38.70
2023-05-22T23:58:12.335Z,39.47
